sensor_id;sensor_type;location;lat;lon;timestamp;pressure;altitude;pressure_sealevel;temperature;humidity
28181;BME280;15464;50.988;10.318;2023-04-28T00:00:02;98982.84;;;7.32;61.84
28181;BME280;15464;50.988;10.318;2023-04-28T00:02:33;98994.91;;;7.23;62.76
28181;BME280;15464;50.988;10.318;2023-04-28T00:05:00;98989.63;;;7.23;62.19
28181;BME280;15464;50.988;10.318;2023-04-28T00:07:27;98989.63;;;7.23;62.79
28181;BME280;15464;50.988;10.318;2023-04-28T00:09:53;98990.69;;;7.21;62.56
28181;BME280;15464;50.988;10.318;2023-04-28T00:12:22;98977.84;;;7.16;62.74
28181;BME280;15464;50.988;10.318;2023-04-28T00:14:49;98976.97;;;7.16;62.67
28181;BME280;15464;50.988;10.318;2023-04-28T00:17:15;98973.84;;;7.11;63.26
28181;BME280;15464;50.988;10.318;2023-04-28T00:19:42;98976.56;;;7.09;62.97
28181;BME280;15464;50.988;10.318;2023-04-28T00:22:10;98977.84;;;7.04;63.70
28181;BME280;15464;50.988;10.318;2023-04-28T00:24:37;98968.44;;;7.00;64.70
28181;BME280;15464;50.988;10.318;2023-04-28T00:27:03;98977.22;;;7.00;64.46
28181;BME280;15464;50.988;10.318;2023-04-28T00:29:30;98969.28;;;7.00;64.48
28181;BME280;15464;50.988;10.318;2023-04-28T00:31:56;98963.91;;;7.02;63.92
28181;BME280;15464;50.988;10.318;2023-04-28T00:34:23;98953.59;;;6.99;64.09
28181;BME280;15464;50.988;10.318;2023-04-28T00:36:50;98955.16;;;7.01;64.61
28181;BME280;15464;50.988;10.318;2023-04-28T00:39:16;98953.81;;;6.96;65.92
28181;BME280;15464;50.988;10.318;2023-04-28T00:41:43;98953.72;;;6.97;65.27
28181;BME280;15464;50.988;10.318;2023-04-28T00:44:10;98966.03;;;6.97;64.90
28181;BME280;15464;50.988;10.318;2023-04-28T00:46:37;98958.34;;;6.94;65.45
28181;BME280;15464;50.988;10.318;2023-04-28T00:49:03;98956.13;;;6.87;65.25
28181;BME280;15464;50.988;10.318;2023-04-28T00:51:31;98953.41;;;6.89;65.75
28181;BME280;15464;50.988;10.318;2023-04-28T00:53:59;98950.44;;;6.94;65.76
28181;BME280;15464;50.988;10.318;2023-04-28T00:56:27;98958.66;;;6.89;65.86
28181;BME280;15464;50.988;10.318;2023-04-28T00:58:57;98960.69;;;6.85;66.30
28181;BME280;15464;50.988;10.318;2023-04-28T01:01:24;98950.03;;;6.87;66.27
28181;BME280;15464;50.988;10.318;2023-04-28T01:03:51;98958.16;;;6.84;67.19
28181;BME280;15464;50.988;10.318;2023-04-28T01:06:18;98953.81;;;6.83;66.66
28181;BME280;15464;50.988;10.318;2023-04-28T01:08:47;98944.13;;;6.83;66.34
28181;BME280;15464;50.988;10.318;2023-04-28T01:11:14;98943.50;;;6.80;66.51
28181;BME280;15464;50.988;10.318;2023-04-28T01:13:41;98937.91;;;6.84;66.28
28181;BME280;15464;50.988;10.318;2023-04-28T01:16:08;98933.47;;;6.85;65.94
28181;BME280;15464;50.988;10.318;2023-04-28T01:18:35;98930.63;;;6.88;66.31
28181;BME280;15464;50.988;10.318;2023-04-28T01:21:02;98934.00;;;6.90;66.19
28181;BME280;15464;50.988;10.318;2023-04-28T01:23:29;98937.81;;;6.86;65.85
28181;BME280;15464;50.988;10.318;2023-04-28T01:25:56;98936.31;;;6.82;66.54
28181;BME280;15464;50.988;10.318;2023-04-28T01:28:23;98924.09;;;6.81;66.76
28181;BME280;15464;50.988;10.318;2023-04-28T01:30:50;98924.72;;;6.84;66.30
28181;BME280;15464;50.988;10.318;2023-04-28T01:33:17;98925.78;;;6.82;66.26
28181;BME280;15464;50.988;10.318;2023-04-28T01:35:43;98914.38;;;6.81;66.43
28181;BME280;15464;50.988;10.318;2023-04-28T01:38:10;98913.44;;;6.82;66.14
28181;BME280;15464;50.988;10.318;2023-04-28T01:40:37;98904.16;;;6.77;67.05
28181;BME280;15464;50.988;10.318;2023-04-28T01:43:03;98897.94;;;6.78;66.72
28181;BME280;15464;50.988;10.318;2023-04-28T01:45:30;98897.00;;;6.79;66.75
28181;BME280;15464;50.988;10.318;2023-04-28T01:47:57;98891.22;;;6.74;66.45
28181;BME280;15464;50.988;10.318;2023-04-28T01:50:24;98894.38;;;6.79;66.70
28181;BME280;15464;50.988;10.318;2023-04-28T01:52:50;98896.69;;;6.71;66.72
28181;BME280;15464;50.988;10.318;2023-04-28T01:55:17;98895.75;;;6.72;66.31
28181;BME280;15464;50.988;10.318;2023-04-28T01:57:44;98888.28;;;6.66;66.99
28181;BME280;15464;50.988;10.318;2023-04-28T02:00:10;98886.38;;;6.68;66.74
28181;BME280;15464;50.988;10.318;2023-04-28T02:02:37;98886.25;;;6.69;66.25
28181;BME280;15464;50.988;10.318;2023-04-28T02:05:04;98885.97;;;6.74;66.45
28181;BME280;15464;50.988;10.318;2023-04-28T02:07:31;98881.41;;;6.76;66.88
28181;BME280;15464;50.988;10.318;2023-04-28T02:09:58;98873.72;;;6.73;66.86
28181;BME280;15464;50.988;10.318;2023-04-28T02:12:25;98879.00;;;6.73;66.48
28181;BME280;15464;50.988;10.318;2023-04-28T02:14:51;98888.34;;;6.77;66.63
28181;BME280;15464;50.988;10.318;2023-04-28T02:17:18;98874.44;;;6.75;65.94
28181;BME280;15464;50.988;10.318;2023-04-28T02:19:45;98875.19;;;6.77;66.60
28181;BME280;15464;50.988;10.318;2023-04-28T02:22:11;98881.19;;;6.79;66.65
28181;BME280;15464;50.988;10.318;2023-04-28T02:24:38;98876.34;;;6.73;66.55
28181;BME280;15464;50.988;10.318;2023-04-28T02:27:05;98868.44;;;6.73;66.05
28181;BME280;15464;50.988;10.318;2023-04-28T02:29:31;98885.97;;;6.74;66.21
28181;BME280;15464;50.988;10.318;2023-04-28T02:31:58;98864.03;;;6.73;66.28
28181;BME280;15464;50.988;10.318;2023-04-28T02:34:25;98860.03;;;6.68;66.59
28181;BME280;15464;50.988;10.318;2023-04-28T02:36:52;98860.97;;;6.67;66.65
28181;BME280;15464;50.988;10.318;2023-04-28T02:39:18;98862.66;;;6.68;66.92
28181;BME280;15464;50.988;10.318;2023-04-28T02:41:47;98856.41;;;6.69;66.69
28181;BME280;15464;50.988;10.318;2023-04-28T02:44:14;98859.59;;;6.74;66.80
28181;BME280;15464;50.988;10.318;2023-04-28T02:46:41;98864.31;;;6.69;66.46
28181;BME280;15464;50.988;10.318;2023-04-28T02:49:08;98866.56;;;6.62;66.80
28181;BME280;15464;50.988;10.318;2023-04-28T02:51:34;98850.44;;;6.67;66.80
28181;BME280;15464;50.988;10.318;2023-04-28T02:54:01;98848.75;;;6.66;66.70
28181;BME280;15464;50.988;10.318;2023-04-28T02:56:28;98857.50;;;6.66;66.29
28181;BME280;15464;50.988;10.318;2023-04-28T02:58:58;98855.19;;;6.62;66.70
28181;BME280;15464;50.988;10.318;2023-04-28T03:01:25;98840.00;;;6.65;66.70
28181;BME280;15464;50.988;10.318;2023-04-28T03:03:52;98837.75;;;6.72;66.99
28181;BME280;15464;50.988;10.318;2023-04-28T03:06:19;98827.66;;;6.66;67.34
28181;BME280;15464;50.988;10.318;2023-04-28T03:08:45;98821.97;;;6.59;67.56
28181;BME280;15464;50.988;10.318;2023-04-28T03:11:12;98810.94;;;6.54;67.71
28181;BME280;15464;50.988;10.318;2023-04-28T03:13:39;98814.09;;;6.46;68.77
28181;BME280;15464;50.988;10.318;2023-04-28T03:16:06;98817.91;;;6.42;69.04
28181;BME280;15464;50.988;10.318;2023-04-28T03:18:33;98813.16;;;6.47;69.23
28181;BME280;15464;50.988;10.318;2023-04-28T03:21:00;98820.00;;;6.50;68.79
28181;BME280;15464;50.988;10.318;2023-04-28T03:23:27;98815.88;;;6.59;68.38
28181;BME280;15464;50.988;10.318;2023-04-28T03:25:53;98809.78;;;6.45;68.69
28181;BME280;15464;50.988;10.318;2023-04-28T03:28:20;98813.25;;;6.46;67.96
28181;BME280;15464;50.988;10.318;2023-04-28T03:30:47;98809.69;;;6.47;68.34
28181;BME280;15464;50.988;10.318;2023-04-28T03:33:14;98808.63;;;6.50;67.36
28181;BME280;15464;50.988;10.318;2023-04-28T03:35:40;98805.03;;;6.51;68.06
28181;BME280;15464;50.988;10.318;2023-04-28T03:38:07;98812.41;;;6.45;68.09
28181;BME280;15464;50.988;10.318;2023-04-28T03:40:34;98798.72;;;6.53;67.95
28181;BME280;15464;50.988;10.318;2023-04-28T03:43:00;98802.94;;;6.56;66.98
28181;BME280;15464;50.988;10.318;2023-04-28T03:45:30;98797.66;;;6.56;67.27
28181;BME280;15464;50.988;10.318;2023-04-28T03:47:57;98795.97;;;6.55;67.90
28181;BME280;15464;50.988;10.318;2023-04-28T03:50:23;98797.44;;;6.59;67.83
28181;BME280;15464;50.988;10.318;2023-04-28T03:52:52;98795.97;;;6.55;68.29
28181;BME280;15464;50.988;10.318;2023-04-28T03:55:18;98785.44;;;6.55;69.17
28181;BME280;15464;50.988;10.318;2023-04-28T03:57:45;98785.63;;;6.52;68.99
28181;BME280;15464;50.988;10.318;2023-04-28T04:00:12;98782.06;;;6.53;68.59
28181;BME280;15464;50.988;10.318;2023-04-28T04:02:39;98780.38;;;6.52;69.80
28181;BME280;15464;50.988;10.318;2023-04-28T04:05:06;98782.28;;;6.50;69.37
28181;BME280;15464;50.988;10.318;2023-04-28T04:07:33;98777.22;;;6.46;70.38
28181;BME280;15464;50.988;10.318;2023-04-28T04:10:00;98781.97;;;6.41;70.82
28181;BME280;15464;50.988;10.318;2023-04-28T04:12:29;98781.75;;;6.44;70.05
28181;BME280;15464;50.988;10.318;2023-04-28T04:14:56;98784.63;;;6.41;71.99
28181;BME280;15464;50.988;10.318;2023-04-28T04:17:23;98778.28;;;6.44;72.32
28181;BME280;15464;50.988;10.318;2023-04-28T04:19:49;98776.63;;;6.43;71.94
28181;BME280;15464;50.988;10.318;2023-04-28T04:22:16;98780.81;;;6.45;72.79
28181;BME280;15464;50.988;10.318;2023-04-28T04:24:43;98769.31;;;6.46;72.25
28181;BME280;15464;50.988;10.318;2023-04-28T04:27:10;98777.22;;;6.46;71.28
28181;BME280;15464;50.988;10.318;2023-04-28T04:32:08;98773.97;;;6.43;71.66
28181;BME280;15464;50.988;10.318;2023-04-28T04:34:35;98771.22;;;6.44;72.63
28181;BME280;15464;50.988;10.318;2023-04-28T04:37:02;98784.72;;;6.40;72.00
28181;BME280;15464;50.988;10.318;2023-04-28T04:39:28;98783.13;;;6.37;71.49
28181;BME280;15464;50.988;10.318;2023-04-28T04:41:55;98775.97;;;6.39;71.62
28181;BME280;15464;50.988;10.318;2023-04-28T04:44:22;98770.50;;;6.42;71.69
28181;BME280;15464;50.988;10.318;2023-04-28T04:46:48;98766.88;;;6.43;71.60
28181;BME280;15464;50.988;10.318;2023-04-28T04:49:15;98756.59;;;6.40;73.00
28181;BME280;15464;50.988;10.318;2023-04-28T04:51:42;98748.69;;;6.40;72.88
28181;BME280;15464;50.988;10.318;2023-04-28T04:54:09;98758.03;;;6.44;73.35
28181;BME280;15464;50.988;10.318;2023-04-28T04:56:35;98756.16;;;6.46;73.92
28181;BME280;15464;50.988;10.318;2023-04-28T04:59:02;98758.03;;;6.44;75.07
28181;BME280;15464;50.988;10.318;2023-04-28T05:01:29;98765.66;;;6.36;76.34
28181;BME280;15464;50.988;10.318;2023-04-28T05:03:56;98767.03;;;6.42;74.89
28181;BME280;15464;50.988;10.318;2023-04-28T05:06:23;98765.44;;;6.39;76.77
28181;BME280;15464;50.988;10.318;2023-04-28T05:08:50;98759.97;;;6.42;76.21
28181;BME280;15464;50.988;10.318;2023-04-28T05:11:16;98761.22;;;6.50;75.41
28181;BME280;15464;50.988;10.318;2023-04-28T05:13:43;98749.44;;;6.42;76.36
28181;BME280;15464;50.988;10.318;2023-04-28T05:16:10;98760.06;;;6.41;76.21
28181;BME280;15464;50.988;10.318;2023-04-28T05:18:36;98746.50;;;6.34;77.15
28181;BME280;15464;50.988;10.318;2023-04-28T05:21:03;98752.16;;;6.41;77.82
28181;BME280;15464;50.988;10.318;2023-04-28T05:23:30;98757.09;;;6.45;77.72
28181;BME280;15464;50.988;10.318;2023-04-28T05:25:56;98748.97;;;6.48;78.55
28181;BME280;15464;50.988;10.318;2023-04-28T05:28:23;98751.09;;;6.43;79.17
28181;BME280;15464;50.988;10.318;2023-04-28T05:30:50;98753.22;;;6.38;78.87
28181;BME280;15464;50.988;10.318;2023-04-28T05:33:16;98756.16;;;6.46;79.21
28181;BME280;15464;50.988;10.318;2023-04-28T05:35:43;98757.84;;;6.47;80.14
28181;BME280;15464;50.988;10.318;2023-04-28T05:38:12;98757.59;;;6.51;80.13
28181;BME280;15464;50.988;10.318;2023-04-28T05:40:39;98755.41;;;6.44;79.50
28181;BME280;15464;50.988;10.318;2023-04-28T05:43:06;98753.63;;;6.45;80.29
28181;BME280;15464;50.988;10.318;2023-04-28T05:45:33;98746.25;;;6.37;81.88
28181;BME280;15464;50.988;10.318;2023-04-28T05:48:00;98744.38;;;6.39;81.65
28181;BME280;15464;50.988;10.318;2023-04-28T05:50:30;98749.19;;;6.45;81.66
28181;BME280;15464;50.988;10.318;2023-04-28T05:52:57;98752.25;;;6.39;80.60
28181;BME280;15464;50.988;10.318;2023-04-28T05:55:24;98751.09;;;6.43;80.84
28181;BME280;15464;50.988;10.318;2023-04-28T05:57:52;98747.28;;;6.47;79.98
28181;BME280;15464;50.988;10.318;2023-04-28T06:00:20;98746.34;;;6.48;80.32
28181;BME280;15464;50.988;10.318;2023-04-28T06:02:47;98740.34;;;6.46;80.76
28181;BME280;15464;50.988;10.318;2023-04-28T06:05:14;98737.84;;;6.32;82.14
28181;BME280;15464;50.988;10.318;2023-04-28T06:07:42;98744.81;;;6.33;81.38
28181;BME280;15464;50.988;10.318;2023-04-28T06:10:09;98744.38;;;6.39;80.73
28181;BME280;15464;50.988;10.318;2023-04-28T06:12:36;98727.06;;;6.48;81.25
28181;BME280;15464;50.988;10.318;2023-04-28T06:15:04;98722.41;;;6.52;82.08
28181;BME280;15464;50.988;10.318;2023-04-28T06:17:30;98724.31;;;6.50;83.13
28181;BME280;15464;50.988;10.318;2023-04-28T06:19:58;98725.03;;;6.52;83.00
28181;BME280;15464;50.988;10.318;2023-04-28T06:22:25;98729.41;;;6.64;82.94
28181;BME280;15464;50.988;10.318;2023-04-28T06:24:52;98721.06;;;6.70;82.12
28181;BME280;15464;50.988;10.318;2023-04-28T06:27:19;98720.84;;;6.73;82.23
28181;BME280;15464;50.988;10.318;2023-04-28T06:29:45;98722.09;;;6.80;82.89
28181;BME280;15464;50.988;10.318;2023-04-28T06:32:12;98721.00;;;6.82;82.67
28181;BME280;15464;50.988;10.318;2023-04-28T06:34:39;98719.22;;;6.83;81.36
28181;BME280;15464;50.988;10.318;2023-04-28T06:37:05;98720.59;;;6.76;83.45
28181;BME280;15464;50.988;10.318;2023-04-28T06:39:32;98723.31;;;6.87;82.76
28181;BME280;15464;50.988;10.318;2023-04-28T06:41:59;98731.00;;;6.90;84.10
28181;BME280;15464;50.988;10.318;2023-04-28T06:44:27;98730.78;;;6.93;84.28
28181;BME280;15464;50.988;10.318;2023-04-28T06:46:54;98735.41;;;6.89;85.45
28181;BME280;15464;50.988;10.318;2023-04-28T06:49:21;98720.41;;;6.79;87.36
28181;BME280;15464;50.988;10.318;2023-04-28T06:51:47;98728.16;;;6.93;85.67
28181;BME280;15464;50.988;10.318;2023-04-28T06:54:14;98726.50;;;7.03;84.40
28181;BME280;15464;50.988;10.318;2023-04-28T06:56:42;98725.09;;;7.10;84.79
28181;BME280;15464;50.988;10.318;2023-04-28T06:59:09;98716.16;;;7.00;85.56
28181;BME280;15464;50.988;10.318;2023-04-28T07:01:35;98714.28;;;7.13;85.05
28181;BME280;15464;50.988;10.318;2023-04-28T07:04:02;98713.63;;;7.22;84.04
28181;BME280;15464;50.988;10.318;2023-04-28T07:06:29;98714.84;;;7.29;84.38
28181;BME280;15464;50.988;10.318;2023-04-28T07:08:57;98705.72;;;7.34;84.58
28181;BME280;15464;50.988;10.318;2023-04-28T07:11:24;98714.38;;;7.36;84.77
28181;BME280;15464;50.988;10.318;2023-04-28T07:13:51;98706.69;;;7.44;85.09
28181;BME280;15464;50.988;10.318;2023-04-28T07:16:17;98710.91;;;7.46;85.41
28181;BME280;15464;50.988;10.318;2023-04-28T07:18:44;98715.59;;;7.54;85.31
28181;BME280;15464;50.988;10.318;2023-04-28T07:21:11;98714.66;;;7.66;84.96
28181;BME280;15464;50.988;10.318;2023-04-28T07:23:38;98722.84;;;7.74;85.62
28181;BME280;15464;50.988;10.318;2023-04-28T07:26:09;98726.19;;;7.76;85.67
28181;BME280;15464;50.988;10.318;2023-04-28T07:29:01;98734.56;;;7.81;84.80
28181;BME280;15464;50.988;10.318;2023-04-28T07:31:28;98731.94;;;7.81;84.01
28181;BME280;15464;50.988;10.318;2023-04-28T07:33:55;98735.41;;;7.70;84.58
28181;BME280;15464;50.988;10.318;2023-04-28T07:36:22;98726.41;;;7.62;84.57
28181;BME280;15464;50.988;10.318;2023-04-28T07:38:49;98728.59;;;7.68;83.64
28181;BME280;15464;50.988;10.318;2023-04-28T07:41:16;98715.72;;;7.63;85.21
28181;BME280;15464;50.988;10.318;2023-04-28T07:43:44;98716.94;;;7.59;85.57
28181;BME280;15464;50.988;10.318;2023-04-28T07:46:11;98720.41;;;7.71;85.30
28181;BME280;15464;50.988;10.318;2023-04-28T07:48:38;98720.19;;;7.74;85.85
28181;BME280;15464;50.988;10.318;2023-04-28T07:51:05;98716.34;;;7.78;85.50
28181;BME280;15464;50.988;10.318;2023-04-28T07:53:32;98707.69;;;7.76;86.12
28181;BME280;15464;50.988;10.318;2023-04-28T07:55:59;98701.94;;;7.60;87.78
28181;BME280;15464;50.988;10.318;2023-04-28T07:58:27;98694.38;;;7.66;87.14
28181;BME280;15464;50.988;10.318;2023-04-28T08:00:53;98698.94;;;7.76;86.12
28181;BME280;15464;50.988;10.318;2023-04-28T08:03:20;98700.50;;;7.78;87.73
28181;BME280;15464;50.988;10.318;2023-04-28T08:05:48;98698.94;;;7.64;88.27
28181;BME280;15464;50.988;10.318;2023-04-28T08:08:14;98697.88;;;7.67;88.75
28181;BME280;15464;50.988;10.318;2023-04-28T08:10:41;98716.34;;;7.78;87.44
28181;BME280;15464;50.988;10.318;2023-04-28T08:13:09;98714.19;;;7.83;87.85
28181;BME280;15464;50.988;10.318;2023-04-28T08:15:36;98713.72;;;7.89;87.55
28181;BME280;15464;50.988;10.318;2023-04-28T08:18:03;98693.16;;;7.82;88.64
28181;BME280;15464;50.988;10.318;2023-04-28T08:20:29;98689.59;;;7.72;89.51
28181;BME280;15464;50.988;10.318;2023-04-28T08:22:58;98696.66;;;7.71;89.75
28181;BME280;15464;50.988;10.318;2023-04-28T08:25:24;98691.16;;;7.74;89.37
28181;BME280;15464;50.988;10.318;2023-04-28T08:27:51;98694.84;;;7.83;89.00
28181;BME280;15464;50.988;10.318;2023-04-28T08:30:21;98680.09;;;7.69;90.32
28181;BME280;15464;50.988;10.318;2023-04-28T08:32:47;98670.25;;;7.93;89.87
28181;BME280;15464;50.988;10.318;2023-04-28T08:35:14;98673.84;;;7.81;92.23
28181;BME280;15464;50.988;10.318;2023-04-28T08:37:41;98662.56;;;8.01;91.84
28181;BME280;15464;50.988;10.318;2023-04-28T08:40:08;98655.59;;;8.12;91.02
28181;BME280;15464;50.988;10.318;2023-04-28T08:42:36;98646.19;;;8.30;90.94
28181;BME280;15464;50.988;10.318;2023-04-28T08:45:04;98651.22;;;8.44;91.54
28181;BME280;15464;50.988;10.318;2023-04-28T08:47:36;98659.13;;;8.55;92.79
28181;BME280;15464;50.988;10.318;2023-04-28T08:50:05;98660.88;;;8.66;91.61
28181;BME280;15464;50.988;10.318;2023-04-28T08:52:34;98660.00;;;8.76;90.76
28181;BME280;15464;50.988;10.318;2023-04-28T08:55:11;98654.59;;;8.78;89.11
28181;BME280;15464;50.988;10.318;2023-04-28T08:57:39;98660.00;;;8.76;89.70
28181;BME280;15464;50.988;10.318;2023-04-28T09:00:09;98655.16;;;8.81;89.65
28181;BME280;15464;50.988;10.318;2023-04-28T09:02:36;98650.19;;;8.88;90.14
28181;BME280;15464;50.988;10.318;2023-04-28T09:05:06;98648.84;;;8.94;91.04
28181;BME280;15464;50.988;10.318;2023-04-28T09:07:34;98648.34;;;9.00;89.36
28181;BME280;15464;50.988;10.318;2023-04-28T09:10:20;98655.66;;;8.75;89.24
28181;BME280;15464;50.988;10.318;2023-04-28T09:12:50;98654.03;;;8.74;89.58
28181;BME280;15464;50.988;10.318;2023-04-28T09:15:44;98646.94;;;8.64;89.61
28181;BME280;15464;50.988;10.318;2023-04-28T09:18:13;98652.22;;;8.64;89.33
28181;BME280;15464;50.988;10.318;2023-04-28T09:20:41;98654.38;;;8.70;88.64
28181;BME280;15464;50.988;10.318;2023-04-28T09:23:21;98651.38;;;8.74;89.14
28181;BME280;15464;50.988;10.318;2023-04-28T09:25:58;98644.69;;;8.59;91.10
28181;BME280;15464;50.988;10.318;2023-04-28T09:28:25;98640.91;;;8.73;90.31
28181;BME280;15464;50.988;10.318;2023-04-28T09:30:52;98632.34;;;8.80;90.74
28181;BME280;15464;50.988;10.318;2023-04-28T09:33:20;98635.19;;;8.88;90.49
28181;BME280;15464;50.988;10.318;2023-04-28T09:35:47;98639.00;;;8.96;89.73
28181;BME280;15464;50.988;10.318;2023-04-28T09:38:15;98642.09;;;9.01;90.36
28181;BME280;15464;50.988;10.318;2023-04-28T09:40:59;98646.25;;;8.82;90.83
28181;BME280;15464;50.988;10.318;2023-04-28T09:45:54;98636.28;;;8.86;91.04
28181;BME280;15464;50.988;10.318;2023-04-28T09:48:29;98622.88;;;8.99;90.55
28181;BME280;15464;50.988;10.318;2023-04-28T09:51:06;98628.34;;;9.07;90.70
28181;BME280;15464;50.988;10.318;2023-04-28T09:53:35;98621.13;;;9.09;90.12
28181;BME280;15464;50.988;10.318;2023-04-28T09:56:02;98625.44;;;9.10;90.68
28181;BME280;15464;50.988;10.318;2023-04-28T09:58:33;98627.13;;;9.11;90.13
28181;BME280;15464;50.988;10.318;2023-04-28T10:01:00;98630.75;;;9.10;89.79
28181;BME280;15464;50.988;10.318;2023-04-28T10:03:29;98624.34;;;9.12;89.37
28181;BME280;15464;50.988;10.318;2023-04-28T10:05:59;98619.44;;;9.08;89.32
28181;BME280;15464;50.988;10.318;2023-04-28T10:08:47;98622.81;;;9.10;89.73
28181;BME280;15464;50.988;10.318;2023-04-28T10:11:16;98622.53;;;9.13;88.94
28181;BME280;15464;50.988;10.318;2023-04-28T10:13:43;98612.16;;;9.21;88.72
28181;BME280;15464;50.988;10.318;2023-04-28T10:16:12;98618.16;;;9.23;88.68
28181;BME280;15464;50.988;10.318;2023-04-28T10:18:40;98619.38;;;9.19;89.65
28181;BME280;15464;50.988;10.318;2023-04-28T10:21:07;98616.91;;;9.27;89.03
28181;BME280;15464;50.988;10.318;2023-04-28T10:26:33;98624.09;;;9.36;89.00
28181;BME280;15464;50.988;10.318;2023-04-28T10:29:02;98614.63;;;9.43;89.25
28181;BME280;15464;50.988;10.318;2023-04-28T10:31:29;98622.06;;;9.49;89.69
28181;BME280;15464;50.988;10.318;2023-04-28T10:34:20;98615.09;;;9.48;89.36
28181;BME280;15464;50.988;10.318;2023-04-28T10:36:48;98609.06;;;9.46;89.75
28181;BME280;15464;50.988;10.318;2023-04-28T10:39:16;98613.41;;;9.47;90.47
28181;BME280;15464;50.988;10.318;2023-04-28T10:41:46;98599.22;;;9.48;90.14
28181;BME280;15464;50.988;10.318;2023-04-28T10:47:03;98588.53;;;9.69;89.92
28181;BME280;15464;50.988;10.318;2023-04-28T10:55:25;98568.69;;;9.94;94.02
28181;BME280;15464;50.988;10.318;2023-04-28T11:00:43;98560.19;;;10.00;93.05
28181;BME280;15464;50.988;10.318;2023-04-28T11:08:54;98558.31;;;10.21;94.36
28181;BME280;15464;50.988;10.318;2023-04-28T11:11:23;98559.03;;;10.42;94.88
28181;BME280;15464;50.988;10.318;2023-04-28T11:13:52;98559.28;;;10.59;95.93
28181;BME280;15464;50.988;10.318;2023-04-28T11:16:21;98556.88;;;10.75;93.22
28181;BME280;15464;50.988;10.318;2023-04-28T11:21:15;98557.03;;;10.64;93.21
28181;BME280;15464;50.988;10.318;2023-04-28T11:23:42;98559.69;;;10.83;91.84
28181;BME280;15464;50.988;10.318;2023-04-28T11:26:09;98560.22;;;10.96;91.12
28181;BME280;15464;50.988;10.318;2023-04-28T11:28:49;98559.66;;;11.02;92.10
28181;BME280;15464;50.988;10.318;2023-04-28T11:31:16;98555.97;;;11.13;92.23
28181;BME280;15464;50.988;10.318;2023-04-28T11:33:53;98547.97;;;10.85;92.66
28181;BME280;15464;50.988;10.318;2023-04-28T11:36:42;98546.78;;;11.07;92.95
28181;BME280;15464;50.988;10.318;2023-04-28T11:39:11;98547.03;;;11.23;91.05
28181;BME280;15464;50.988;10.318;2023-04-28T11:41:43;98551.81;;;11.10;91.31
28181;BME280;15464;50.988;10.318;2023-04-28T11:44:14;98547.63;;;11.17;90.37
28181;BME280;15464;50.988;10.318;2023-04-28T11:46:46;98548.59;;;11.44;90.22
28181;BME280;15464;50.988;10.318;2023-04-28T11:49:17;98541.84;;;11.59;88.73
28181;BME280;15464;50.988;10.318;2023-04-28T11:51:44;98538.56;;;11.75;89.25
28181;BME280;15464;50.988;10.318;2023-04-28T11:54:27;98537.63;;;11.93;88.46
28181;BME280;15464;50.988;10.318;2023-04-28T11:56:55;98535.16;;;12.09;87.86
28181;BME280;15464;50.988;10.318;2023-04-28T11:59:49;98532.41;;;12.01;85.99
28181;BME280;15464;50.988;10.318;2023-04-28T12:02:24;98523.91;;;12.16;84.55
28181;BME280;15464;50.988;10.318;2023-04-28T12:04:54;98519.34;;;12.26;84.56
28181;BME280;15464;50.988;10.318;2023-04-28T12:07:20;98514.50;;;12.39;85.14
28181;BME280;15464;50.988;10.318;2023-04-28T12:10:13;98516.91;;;12.50;84.03
28181;BME280;15464;50.988;10.318;2023-04-28T12:12:42;98505.22;;;12.61;84.39
28181;BME280;15464;50.988;10.318;2023-04-28T12:15:16;98505.66;;;12.56;83.56
28181;BME280;15464;50.988;10.318;2023-04-28T12:17:46;98515.78;;;12.52;83.96
28181;BME280;15464;50.988;10.318;2023-04-28T12:20:33;98513.63;;;12.56;84.25
28181;BME280;15464;50.988;10.318;2023-04-28T12:23:00;98502.16;;;12.73;84.80
28181;BME280;15464;50.988;10.318;2023-04-28T12:25:28;98501.56;;;12.87;84.77
28181;BME280;15464;50.988;10.318;2023-04-28T12:28:02;98500.25;;;12.66;84.75
28181;BME280;15464;50.988;10.318;2023-04-28T12:30:34;98495.38;;;12.79;85.15
28181;BME280;15464;50.988;10.318;2023-04-28T12:33:04;98495.03;;;12.82;85.24
28181;BME280;15464;50.988;10.318;2023-04-28T12:35:31;98498.06;;;12.87;85.13
28181;BME280;15464;50.988;10.318;2023-04-28T12:37:58;98506.25;;;12.93;84.91
28181;BME280;15464;50.988;10.318;2023-04-28T12:40:25;98498.16;;;12.77;84.95
28181;BME280;15464;50.988;10.318;2023-04-28T12:42:52;98498.19;;;13.03;84.85
28181;BME280;15464;50.988;10.318;2023-04-28T12:45:19;98491.28;;;13.18;84.74
28181;BME280;15464;50.988;10.318;2023-04-28T12:47:46;98492.88;;;13.29;84.97
28181;BME280;15464;50.988;10.318;2023-04-28T12:50:13;98488.66;;;13.01;85.58
28181;BME280;15464;50.988;10.318;2023-04-28T12:52:40;98482.84;;;13.23;83.71
28181;BME280;15464;50.988;10.318;2023-04-28T12:55:07;98489.22;;;13.30;84.73
28181;BME280;15464;50.988;10.318;2023-04-28T12:57:34;98485.72;;;13.38;85.43
28181;BME280;15464;50.988;10.318;2023-04-28T13:00:06;98479.25;;;13.40;84.45
28181;BME280;15464;50.988;10.318;2023-04-28T13:02:33;98481.59;;;13.43;84.76
28181;BME280;15464;50.988;10.318;2023-04-28T13:05:00;98482.00;;;13.64;83.99
28181;BME280;15464;50.988;10.318;2023-04-28T13:07:27;98467.81;;;13.56;84.96
28181;BME280;15464;50.988;10.318;2023-04-28T13:09:55;98470.78;;;13.45;83.19
28181;BME280;15464;50.988;10.318;2023-04-28T13:12:22;98472.59;;;13.10;82.81
28181;BME280;15464;50.988;10.318;2023-04-28T13:14:49;98472.59;;;13.10;84.60
28181;BME280;15464;50.988;10.318;2023-04-28T13:17:16;98473.13;;;13.14;85.55
28181;BME280;15464;50.988;10.318;2023-04-28T13:19:43;98469.28;;;13.50;85.16
28181;BME280;15464;50.988;10.318;2023-04-28T13:22:10;98460.06;;;13.79;83.54
28181;BME280;15464;50.988;10.318;2023-04-28T13:24:37;98462.25;;;13.33;83.82
28181;BME280;15464;50.988;10.318;2023-04-28T13:27:04;98470.53;;;13.22;83.56
28181;BME280;15464;50.988;10.318;2023-04-28T13:29:35;98464.50;;;13.54;83.90